Time;durP1;ratioP1;P1;durP2;ratioP2;P2;SDS_P1;SDS_P2;PMS_P1;PMS_P2;Temp;Humidity;BMP_temperature;BMP_pressure;BME280_temperature;BME280_humidity;BME280_pressure;Samples;Min_cycle;Max_cycle;Signal;HPM_P1;HPM_P2
2022/12/06 00:00:17;;;;;;;;;;;21.20;38.10;;;;;;464713;256;1296;-44
2022/12/06 00:02:18;;;;;;;;;;;21.20;38.20;;;;;;464941;256;1261;-43
2022/12/06 00:04:20;;;;;;;;;;;21.20;38.10;;;;;;464674;256;1273;-43
2022/12/06 00:06:21;;;;;;;;;;;21.20;38.20;;;;;;465081;256;1336;-43
2022/12/06 00:08:22;;;;;;;;;;;21.20;38.20;;;;;;464691;256;2194;-44
2022/12/06 00:10:24;;;;;;;;;;;21.20;38.20;;;;;;464974;256;1218;-43
2022/12/06 00:12:25;;;;;;;;;;;21.20;38.30;;;;;;464698;256;1929;-43
2022/12/06 00:14:26;;;;;;;;;;;21.20;38.30;;;;;;464716;256;1316;-44
2022/12/06 00:16:27;;;;;;;;;;;21.20;38.30;;;;;;464652;256;1650;-43
2022/12/06 00:18:29;;;;;;;;;;;21.20;38.30;;;;;;464856;256;1496;-43
2022/12/06 00:20:30;;;;;;;;;;;21.20;38.20;;;;;;464712;256;1273;-43
2022/12/06 00:22:31;;;;;;;;;;;21.20;38.20;;;;;;464646;256;1396;-44
2022/12/06 00:24:33;;;;;;;;;;;21.20;38.30;;;;;;465129;256;1219;-43
2022/12/06 00:26:34;;;;;;;;;;;21.10;38.20;;;;;;464522;256;1540;-44
2022/12/06 00:28:35;;;;;;;;;;;21.20;38.20;;;;;;464865;256;2163;-44
2022/12/06 00:30:37;;;;;;;;;;;21.20;38.30;;;;;;464682;256;1284;-43
2022/12/06 00:32:38;;;;;;;;;;;21.20;38.20;;;;;;464605;256;1615;-43
2022/12/06 00:34:39;;;;;;;;;;;21.10;38.20;;;;;;464703;256;1306;-43
2022/12/06 00:36:41;;;;;;;;;;;21.20;38.30;;;;;;464484;256;1280;-44
2022/12/06 00:38:42;;;;;;;;;;;21.10;38.20;;;;;;464745;256;1270;-44
2022/12/06 00:40:44;;;;;;;;;;;21.20;38.20;;;;;;464635;256;1660;-44
2022/12/06 00:42:45;;;;;;;;;;;21.10;38.20;;;;;;464601;256;1676;-43
2022/12/06 00:44:46;;;;;;;;;;;21.10;38.30;;;;;;464685;256;1416;-44
2022/12/06 00:46:48;;;;;;;;;;;21.10;38.30;;;;;;464458;256;1395;-44
2022/12/06 00:48:49;;;;;;;;;;;21.10;38.30;;;;;;464699;256;2171;-43
2022/12/06 00:50:50;;;;;;;;;;;21.10;38.30;;;;;;464964;256;1201;-44
2022/12/06 00:52:51;;;;;;;;;;;21.10;38.20;;;;;;464621;256;1401;-43
2022/12/06 00:54:53;;;;;;;;;;;21.10;38.30;;;;;;464767;256;1246;-44
2022/12/06 00:56:54;;;;;;;;;;;21.10;38.30;;;;;;464939;256;1265;-44
2022/12/06 00:58:55;;;;;;;;;;;21.10;38.30;;;;;;464721;256;1265;-43
2022/12/06 01:00:57;;;;;;;;;;;21.10;38.30;;;;;;464748;256;1262;-43
2022/12/06 01:02:58;;;;;;;;;;;21.10;38.30;;;;;;464945;256;1189;-43
2022/12/06 01:05:00;;;;;;;;;;;21.10;38.40;;;;;;464920;256;1242;-43
2022/12/06 01:07:01;;;;;;;;;;;21.10;38.30;;;;;;464632;256;1301;-44
2022/12/06 01:09:02;;;;;;;;;;;21.10;38.40;;;;;;464809;256;2179;-44
2022/12/06 01:11:03;;;;;;;;;;;21.10;38.30;;;;;;464989;256;1286;-43
2022/12/06 01:13:05;;;;;;;;;;;21.10;38.40;;;;;;464689;256;1824;-44
2022/12/06 01:15:06;;;;;;;;;;;21.10;38.30;;;;;;464665;256;1245;-44
2022/12/06 01:17:07;;;;;;;;;;;21.10;38.40;;;;;;464608;256;1292;-44
2022/12/06 01:19:09;;;;;;;;;;;21.00;38.30;;;;;;464690;256;1218;-43
2022/12/06 01:21:10;;;;;;;;;;;21.10;38.40;;;;;;465015;256;1287;-43
2022/12/06 01:23:11;;;;;;;;;;;21.10;38.50;;;;;;464699;256;1322;-44
2022/12/06 01:25:13;;;;;;;;;;;21.10;38.50;;;;;;464963;256;1307;-43
2022/12/06 01:27:14;;;;;;;;;;;21.00;38.40;;;;;;464895;256;1394;-44
2022/12/06 01:29:15;;;;;;;;;;;21.10;38.50;;;;;;464809;256;2219;-44
2022/12/06 01:31:17;;;;;;;;;;;21.10;38.40;;;;;;465073;256;1443;-44
2022/12/06 01:33:18;;;;;;;;;;;21.10;38.40;;;;;;464881;256;1348;-44
2022/12/06 01:35:19;;;;;;;;;;;21.10;38.40;;;;;;464733;256;1266;-44
2022/12/06 01:37:21;;;;;;;;;;;21.10;38.30;;;;;;464727;256;1536;-43
2022/12/06 01:39:22;;;;;;;;;;;21.10;38.30;;;;;;465154;256;1219;-43
2022/12/06 01:41:23;;;;;;;;;;;21.10;38.30;;;;;;464955;256;1286;-44
2022/12/06 01:43:25;;;;;;;;;;;21.10;38.30;;;;;;464738;256;1248;-44
2022/12/06 01:45:26;;;;;;;;;;;21.10;38.30;;;;;;464721;256;1336;-43
2022/12/06 01:47:27;;;;;;;;;;;21.00;38.30;;;;;;464750;256;1283;-43
2022/12/06 01:49:29;;;;;;;;;;;21.00;38.30;;;;;;464748;256;2183;-44
2022/12/06 01:51:30;;;;;;;;;;;21.00;38.30;;;;;;465171;256;1242;-44
2022/12/06 01:53:31;;;;;;;;;;;21.00;38.30;;;;;;465155;256;1266;-43
2022/12/06 01:55:33;;;;;;;;;;;21.10;38.30;;;;;;464930;256;1202;-43
2022/12/06 01:57:34;;;;;;;;;;;21.00;38.20;;;;;;464759;256;1281;-44
2022/12/06 01:59:35;;;;;;;;;;;21.10;38.40;;;;;;464732;256;1356;-43
2022/12/06 02:01:37;;;;;;;;;;;21.00;38.30;;;;;;464840;256;1253;-43
2022/12/06 02:03:38;;;;;;;;;;;21.00;38.30;;;;;;464719;256;1280;-43
2022/12/06 02:05:39;;;;;;;;;;;21.10;38.40;;;;;;464693;256;1282;-43
2022/12/06 02:07:41;;;;;;;;;;;21.10;38.40;;;;;;465041;256;1291;-43
2022/12/06 02:09:42;;;;;;;;;;;21.00;38.30;;;;;;464989;256;2171;-43
2022/12/06 02:11:44;;;;;;;;;;;21.10;38.40;;;;;;464599;256;1476;-43
2022/12/06 02:13:45;;;;;;;;;;;21.10;38.40;;;;;;464552;257;2350;-43
2022/12/06 02:15:47;;;;;;;;;;;21.10;38.40;;;;;;464683;256;1458;-44
2022/12/06 02:17:48;;;;;;;;;;;21.10;38.50;;;;;;464512;257;1578;-44
2022/12/06 02:19:49;;;;;;;;;;;21.00;38.40;;;;;;465022;256;1255;-44
2022/12/06 02:21:50;;;;;;;;;;;21.00;38.40;;;;;;464642;256;1327;-43
2022/12/06 02:23:52;;;;;;;;;;;21.00;38.40;;;;;;464578;256;1323;-43
2022/12/06 02:25:53;;;;;;;;;;;21.00;38.40;;;;;;464957;256;1254;-44
2022/12/06 02:27:54;;;;;;;;;;;21.10;38.40;;;;;;464640;256;1341;-44
2022/12/06 02:29:56;;;;;;;;;;;21.00;38.40;;;;;;464689;256;2206;-44
2022/12/06 02:31:57;;;;;;;;;;;21.00;38.40;;;;;;464689;256;1490;-44
2022/12/06 02:33:58;;;;;;;;;;;21.00;38.40;;;;;;464724;256;1241;-45
2022/12/06 02:36:00;;;;;;;;;;;21.00;38.40;;;;;;464812;256;1192;-44
2022/12/06 02:38:01;;;;;;;;;;;21.00;38.40;;;;;;464867;256;1268;-43
2022/12/06 02:40:02;;;;;;;;;;;21.00;38.30;;;;;;464707;256;1447;-44
2022/12/06 02:42:04;;;;;;;;;;;21.10;38.40;;;;;;465114;256;1281;-43
2022/12/06 02:44:05;;;;;;;;;;;21.00;38.40;;;;;;464896;256;1253;-43
2022/12/06 02:46:06;;;;;;;;;;;21.00;38.40;;;;;;464841;256;1455;-43
2022/12/06 02:48:08;;;;;;;;;;;21.00;38.40;;;;;;465164;256;1269;-43
2022/12/06 02:50:09;;;;;;;;;;;21.00;38.40;;;;;;465181;256;2202;-44
2022/12/06 02:52:10;;;;;;;;;;;21.00;38.40;;;;;;464768;256;1232;-43
2022/12/06 02:54:12;;;;;;;;;;;21.00;38.40;;;;;;464771;256;1268;-43
2022/12/06 02:56:13;;;;;;;;;;;21.00;38.40;;;;;;464941;256;1353;-44
2022/12/06 02:58:14;;;;;;;;;;;21.00;38.40;;;;;;464773;256;1571;-43
2022/12/06 03:00:15;;;;;;;;;;;21.00;38.40;;;;;;464745;256;1373;-44
2022/12/06 03:02:17;;;;;;;;;;;21.00;38.40;;;;;;464867;256;1223;-43
2022/12/06 03:04:30;;;;;;;;;;;21.00;38.40;;;;;;464720;256;1303;-43
2022/12/06 03:06:19;;;;;;;;;;;21.00;38.40;;;;;;463919;257;2051;-43
2022/12/06 03:08:21;;;;;;;;;;;21.00;38.40;;;;;;464696;256;1288;-43
2022/12/06 03:10:22;;;;;;;;;;;21.00;38.40;;;;;;465104;256;2171;-43
2022/12/06 03:12:23;;;;;;;;;;;21.00;38.40;;;;;;464757;256;1362;-43
2022/12/06 03:14:25;;;;;;;;;;;21.00;38.40;;;;;;464716;256;1315;-43
2022/12/06 03:16:26;;;;;;;;;;;21.00;38.40;;;;;;464919;256;1243;-43
2022/12/06 03:18:30;;;;;;;;;;;21.00;38.40;;;;;;464683;256;1296;-43
2022/12/06 03:20:29;;;;;;;;;;;21.00;38.40;;;;;;464566;256;1988;-44
2022/12/06 03:22:30;;;;;;;;;;;21.00;38.40;;;;;;464712;256;1271;-43
2022/12/06 03:24:31;;;;;;;;;;;21.00;38.40;;;;;;464788;256;1326;-43
2022/12/06 03:26:33;;;;;;;;;;;21.00;38.40;;;;;;465130;256;1267;-44
2022/12/06 03:28:34;;;;;;;;;;;21.00;38.40;;;;;;464734;256;1213;-43
2022/12/06 03:30:35;;;;;;;;;;;21.00;38.40;;;;;;465130;256;2390;-43
2022/12/06 03:32:37;;;;;;;;;;;21.00;38.40;;;;;;465112;256;1230;-43
2022/12/06 03:34:38;;;;;;;;;;;21.00;38.40;;;;;;464734;256;1208;-43
2022/12/06 03:36:39;;;;;;;;;;;21.00;38.40;;;;;;464837;256;1258;-44
2022/12/06 03:38:41;;;;;;;;;;;21.00;38.40;;;;;;464946;256;1305;-43
2022/12/06 03:40:42;;;;;;;;;;;21.00;38.40;;;;;;464699;256;1192;-44
2022/12/06 03:42:43;;;;;;;;;;;21.00;38.30;;;;;;465149;256;1378;-43
2022/12/06 03:44:46;;;;;;;;;;;21.30;38.10;;;;;;464729;256;1244;-44
2022/12/06 03:46:46;;;;;;;;;;;21.40;37.60;;;;;;464673;257;2112;-44
2022/12/06 03:48:47;;;;;;;;;;;21.60;37.40;;;;;;465164;256;1208;-43
2022/12/06 03:50:49;;;;;;;;;;;21.70;37.10;;;;;;465096;256;2235;-43
2022/12/06 03:52:51;;;;;;;;;;;21.90;36.90;;;;;;464739;256;1209;-44
2022/12/06 03:54:52;;;;;;;;;;;22.00;36.70;;;;;;464857;256;1214;-44
2022/12/06 03:56:53;;;;;;;;;;;22.00;36.60;;;;;;464701;256;1296;-43
2022/12/06 03:58:55;;;;;;;;;;;22.10;36.40;;;;;;464695;256;1571;-43
2022/12/06 04:01:03;;;;;;;;;;;22.10;36.30;;;;;;465099;256;1295;-43
2022/12/06 04:02:57;;;;;;;;;;;22.20;36.30;;;;;;464332;256;2215;-43
2022/12/06 04:04:59;;;;;;;;;;;22.20;36.20;;;;;;464702;256;1229;-45
2022/12/06 04:07:00;;;;;;;;;;;22.30;36.10;;;;;;464871;256;1416;-43
2022/12/06 04:11:22;;;;;;;;;;;22.40;36.00;;;;;;464586;257;2194;-43
2022/12/06 04:13:23;;;;;;;;;;;22.40;36.00;;;;;;464908;256;1380;-44
2022/12/06 04:15:24;;;;;;;;;;;22.40;35.90;;;;;;464803;256;1267;-44
2022/12/06 04:19:45;;;;;;;;;;;22.50;35.90;;;;;;464665;257;1290;-43
2022/12/06 04:24:05;;;;;;;;;;;22.50;35.70;;;;;;464687;257;1319;-43
2022/12/06 04:26:07;;;;;;;;;;;22.50;35.70;;;;;;465007;256;1523;-43
2022/12/06 04:39:44;;;;;;;;;;;22.70;35.60;;;;;;464765;257;1247;-44
2022/12/06 04:44:04;;;;;;;;;;;22.70;35.50;;;;;;465114;256;1265;-44
2022/12/06 04:46:06;;;;;;;;;;;22.80;35.50;;;;;;465138;256;1280;-44
2022/12/06 04:48:10;;;;;;;;;;;22.80;35.50;;;;;;465037;256;1203;-43
2022/12/06 04:50:09;;;;;;;;;;;22.80;35.50;;;;;;464862;256;2202;-44
2022/12/06 04:52:10;;;;;;;;;;;22.80;35.50;;;;;;464933;256;1253;-44
2022/12/06 04:54:11;;;;;;;;;;;22.80;35.40;;;;;;465165;256;1301;-43
2022/12/06 04:56:13;;;;;;;;;;;22.80;35.40;;;;;;465207;256;1125;-44
2022/12/06 04:58:14;;;;;;;;;;;22.80;35.40;;;;;;465020;256;1259;-44
2022/12/06 05:00:15;;;;;;;;;;;22.90;35.40;;;;;;464916;256;1117;-43
2022/12/06 05:02:17;;;;;;;;;;;22.90;35.40;;;;;;465160;256;1088;-44
2022/12/06 05:04:18;;;;;;;;;;;22.90;35.30;;;;;;464914;256;1118;-43
2022/12/06 05:06:19;;;;;;;;;;;22.90;35.30;;;;;;465188;256;1187;-44
2022/12/06 05:08:21;;;;;;;;;;;22.90;35.30;;;;;;464805;256;1230;-43
2022/12/06 05:10:22;;;;;;;;;;;22.90;35.20;;;;;;464855;256;2221;-44
2022/12/06 05:12:23;;;;;;;;;;;22.90;35.20;;;;;;465128;256;1175;-43
2022/12/06 05:14:25;;;;;;;;;;;23.00;35.20;;;;;;465085;256;1252;-44
2022/12/06 05:16:26;;;;;;;;;;;23.00;35.20;;;;;;464811;256;1347;-44
2022/12/06 05:18:27;;;;;;;;;;;23.00;35.20;;;;;;464686;256;1379;-44
2022/12/06 05:20:29;;;;;;;;;;;23.00;35.20;;;;;;465140;256;1264;-44
2022/12/06 05:22:30;;;;;;;;;;;23.00;35.20;;;;;;464788;256;1328;-43
2022/12/06 05:24:31;;;;;;;;;;;23.00;35.10;;;;;;464847;256;1332;-43
2022/12/06 05:26:33;;;;;;;;;;;23.00;35.10;;;;;;464823;256;1267;-44
2022/12/06 05:28:34;;;;;;;;;;;23.00;35.10;;;;;;464674;256;1308;-43
2022/12/06 05:30:35;;;;;;;;;;;23.00;35.10;;;;;;465087;256;2162;-44
2022/12/06 05:32:37;;;;;;;;;;;23.10;35.10;;;;;;465064;256;1356;-44
2022/12/06 05:34:38;;;;;;;;;;;23.10;35.10;;;;;;465121;256;1258;-44
2022/12/06 05:36:39;;;;;;;;;;;23.10;35.10;;;;;;465060;256;1559;-43
2022/12/06 05:38:41;;;;;;;;;;;23.10;35.10;;;;;;464736;256;1203;-44
2022/12/06 05:40:42;;;;;;;;;;;23.10;35.10;;;;;;465047;256;1210;-44
2022/12/06 05:42:43;;;;;;;;;;;23.10;35.00;;;;;;465082;256;1350;-44
2022/12/06 05:44:45;;;;;;;;;;;23.10;35.10;;;;;;465074;256;1220;-44
2022/12/06 05:46:46;;;;;;;;;;;23.10;35.10;;;;;;464995;256;1712;-44
2022/12/06 05:48:47;;;;;;;;;;;23.10;35.00;;;;;;465137;256;1428;-43
2022/12/06 05:50:49;;;;;;;;;;;23.10;35.00;;;;;;464857;256;2162;-44
2022/12/06 05:52:50;;;;;;;;;;;23.20;35.00;;;;;;464790;256;1349;-43
2022/12/06 05:54:51;;;;;;;;;;;23.20;35.00;;;;;;464688;256;1244;-44
2022/12/06 05:56:53;;;;;;;;;;;23.20;35.00;;;;;;464717;256;1534;-43
2022/12/06 05:58:54;;;;;;;;;;;23.20;35.00;;;;;;464755;256;2073;-44
2022/12/06 06:00:55;;;;;;;;;;;23.20;35.00;;;;;;464667;256;1231;-43
2022/12/06 06:02:56;;;;;;;;;;;23.20;35.00;;;;;;464851;256;1292;-43
2022/12/06 06:04:58;;;;;;;;;;;23.20;35.00;;;;;;464981;256;1250;-44
2022/12/06 06:06:59;;;;;;;;;;;23.20;34.90;;;;;;464926;256;1385;-44
2022/12/06 06:09:00;;;;;;;;;;;23.20;34.90;;;;;;464532;256;2652;-44
2022/12/06 06:11:02;;;;;;;;;;;23.20;34.90;;;;;;465035;256;2222;-44
2022/12/06 06:13:03;;;;;;;;;;;23.20;34.90;;;;;;464858;256;1194;-44
2022/12/06 06:15:06;;;;;;;;;;;23.20;34.90;;;;;;465128;256;1333;-43
2022/12/06 06:17:06;;;;;;;;;;;23.30;34.90;;;;;;464930;256;1306;-44
2022/12/06 06:19:07;;;;;;;;;;;23.30;34.90;;;;;;464724;256;1257;-44
2022/12/06 06:21:08;;;;;;;;;;;23.30;34.90;;;;;;464720;256;1228;-43
2022/12/06 06:23:10;;;;;;;;;;;23.30;34.90;;;;;;464830;256;1294;-44
2022/12/06 06:25:11;;;;;;;;;;;23.30;34.80;;;;;;465044;256;1238;-44
2022/12/06 06:27:13;;;;;;;;;;;23.30;34.90;;;;;;464715;256;1388;-44
2022/12/06 06:29:14;;;;;;;;;;;23.30;34.80;;;;;;464777;256;1271;-44
2022/12/06 06:31:15;;;;;;;;;;;23.30;34.80;;;;;;465038;256;2170;-44
2022/12/06 06:33:16;;;;;;;;;;;23.30;34.80;;;;;;464725;256;1341;-44
2022/12/06 06:35:18;;;;;;;;;;;23.30;34.80;;;;;;464675;256;1237;-43
2022/12/06 06:37:19;;;;;;;;;;;23.30;34.80;;;;;;464519;256;1237;-45
2022/12/06 06:39:20;;;;;;;;;;;23.30;34.80;;;;;;464749;256;1372;-43
2022/12/06 06:41:22;;;;;;;;;;;23.40;34.90;;;;;;464659;256;1090;-44
2022/12/06 06:43:23;;;;;;;;;;;23.30;34.80;;;;;;464623;256;1149;-44
2022/12/06 06:45:24;;;;;;;;;;;23.40;34.80;;;;;;464691;256;1137;-44
2022/12/06 06:47:26;;;;;;;;;;;23.40;34.80;;;;;;464644;256;1298;-44
2022/12/06 06:49:27;;;;;;;;;;;23.40;34.80;;;;;;464654;256;1380;-44
2022/12/06 06:51:28;;;;;;;;;;;23.40;34.80;;;;;;464625;256;2218;-44
2022/12/06 06:53:30;;;;;;;;;;;23.40;34.80;;;;;;464584;256;1266;-43
2022/12/06 06:55:31;;;;;;;;;;;23.40;34.80;;;;;;465007;256;1292;-44
2022/12/06 06:57:34;;;;;;;;;;;23.40;34.80;;;;;;464560;256;1313;-44
2022/12/06 06:59:33;;;;;;;;;;;23.40;34.80;;;;;;464627;256;2124;-44
2022/12/06 07:01:35;;;;;;;;;;;23.40;34.80;;;;;;464528;256;1718;-44
2022/12/06 07:03:36;;;;;;;;;;;23.30;34.80;;;;;;464679;256;1305;-44
2022/12/06 07:05:38;;;;;;;;;;;23.20;35.10;;;;;;464454;256;1287;-43
2022/12/06 07:07:39;;;;;;;;;;;23.00;35.40;;;;;;464592;256;1235;-43
2022/12/06 07:09:40;;;;;;;;;;;22.80;35.70;;;;;;464524;256;1261;-43
2022/12/06 07:11:41;;;;;;;;;;;22.60;36.00;;;;;;464839;256;2190;-43
2022/12/06 07:13:43;;;;;;;;;;;22.60;36.10;;;;;;464643;256;1216;-43
2022/12/06 07:15:44;;;;;;;;;;;22.50;36.30;;;;;;464522;256;1533;-43
2022/12/06 07:17:45;;;;;;;;;;;22.40;36.30;;;;;;464308;256;1438;-44
2022/12/06 07:19:47;;;;;;;;;;;22.30;36.50;;;;;;464379;256;1275;-43
2022/12/06 07:21:48;;;;;;;;;;;22.20;36.60;;;;;;464449;256;1226;-43
2022/12/06 07:23:49;;;;;;;;;;;22.20;36.70;;;;;;464798;256;1267;-43
2022/12/06 07:25:51;;;;;;;;;;;22.20;36.70;;;;;;464535;256;1237;-43
2022/12/06 07:27:52;;;;;;;;;;;22.20;36.80;;;;;;464473;256;1296;-43
2022/12/06 07:29:53;;;;;;;;;;;22.10;36.80;;;;;;464305;256;1249;-43
2022/12/06 07:31:55;;;;;;;;;;;22.00;36.90;;;;;;464461;256;2271;-43
2022/12/06 07:33:56;;;;;;;;;;;22.00;36.90;;;;;;464726;256;1282;-43
2022/12/06 07:35:57;;;;;;;;;;;22.00;37.00;;;;;;464539;256;1334;-43
2022/12/06 07:37:59;;;;;;;;;;;22.00;37.00;;;;;;464579;256;1271;-44
2022/12/06 07:40:00;;;;;;;;;;;22.10;36.90;;;;;;464542;256;1177;-44
2022/12/06 07:46:40;;;;;;;;;;;22.50;36.00;;;;;;464499;256;1395;-44
2022/12/06 07:48:41;;;;;;;;;;;22.40;36.00;;;;;;464554;256;1249;-44
2022/12/06 07:50:43;;;;;;;;;;;22.30;36.20;;;;;;464760;256;1296;-43
2022/12/06 07:52:44;;;;;;;;;;;22.20;36.40;;;;;;464323;256;2225;-44
2022/12/06 07:54:45;;;;;;;;;;;22.20;36.50;;;;;;464418;256;1234;-43
2022/12/06 07:56:47;;;;;;;;;;;22.10;36.60;;;;;;464299;256;1304;-43
2022/12/06 07:58:48;;;;;;;;;;;22.10;36.70;;;;;;464374;256;1341;-43
2022/12/06 08:00:50;;;;;;;;;;;22.00;36.80;;;;;;464465;256;1229;-43
2022/12/06 08:02:51;;;;;;;;;;;21.90;36.80;;;;;;464460;256;1183;-43
2022/12/06 08:04:52;;;;;;;;;;;21.90;36.90;;;;;;463850;256;1263;-43
2022/12/06 08:06:55;;;;;;;;;;;21.90;36.90;;;;;;464019;256;1251;-43
2022/12/06 08:08:55;;;;;;;;;;;21.90;36.90;;;;;;464085;256;1933;-43
2022/12/06 08:10:56;;;;;;;;;;;21.90;37.00;;;;;;464106;256;1237;-44
2022/12/06 08:12:58;;;;;;;;;;;21.90;37.00;;;;;;463995;256;2135;-43
2022/12/06 08:14:59;;;;;;;;;;;21.80;37.00;;;;;;464182;256;1265;-44
2022/12/06 08:17:00;;;;;;;;;;;21.80;37.00;;;;;;464160;256;1374;-43
2022/12/06 08:19:02;;;;;;;;;;;21.80;37.10;;;;;;464137;256;1304;-43
2022/12/06 08:21:03;;;;;;;;;;;21.80;37.00;;;;;;464117;256;1695;-43
2022/12/06 08:23:04;;;;;;;;;;;21.80;37.00;;;;;;464094;256;1195;-43
2022/12/06 08:25:06;;;;;;;;;;;21.80;37.00;;;;;;464264;256;1288;-43
2022/12/06 08:27:07;;;;;;;;;;;21.80;37.10;;;;;;464191;256;1498;-43
2022/12/06 08:29:08;;;;;;;;;;;21.80;37.10;;;;;;464132;256;1452;-44
2022/12/06 08:31:10;;;;;;;;;;;21.70;37.10;;;;;;464130;256;2202;-43
2022/12/06 08:33:11;;;;;;;;;;;21.80;37.10;;;;;;464195;256;1325;-44
2022/12/06 08:35:12;;;;;;;;;;;21.80;37.10;;;;;;464141;256;1728;-43
2022/12/06 08:37:14;;;;;;;;;;;21.80;37.10;;;;;;464098;256;1274;-43
2022/12/06 08:39:15;;;;;;;;;;;21.70;37.10;;;;;;464149;256;1258;-43
2022/12/06 08:43:36;;;;;;;;;;;21.70;37.10;;;;;;464204;257;1211;-44
2022/12/06 08:45:37;;;;;;;;;;;21.70;37.20;;;;;;464117;256;1337;-43
2022/12/06 08:47:38;;;;;;;;;;;21.70;37.10;;;;;;464209;256;1255;-43
2022/12/06 08:49:39;;;;;;;;;;;21.70;37.10;;;;;;464044;256;1301;-44
2022/12/06 08:51:41;;;;;;;;;;;21.70;37.00;;;;;;464133;256;2202;-44
2022/12/06 08:53:42;;;;;;;;;;;21.70;37.10;;;;;;464164;256;1434;-44
2022/12/06 08:55:43;;;;;;;;;;;21.70;37.10;;;;;;464236;256;1244;-43
2022/12/06 08:57:45;;;;;;;;;;;21.60;37.20;;;;;;464113;256;1315;-43
2022/12/06 08:59:46;;;;;;;;;;;21.70;37.20;;;;;;464028;256;1339;-43
2022/12/06 09:01:47;;;;;;;;;;;21.70;37.20;;;;;;464108;256;1636;-44
2022/12/06 09:03:49;;;;;;;;;;;21.70;37.10;;;;;;464015;256;1556;-44
2022/12/06 09:05:50;;;;;;;;;;;21.60;37.10;;;;;;463819;256;1399;-43
2022/12/06 09:07:51;;;;;;;;;;;21.70;37.20;;;;;;463754;256;1654;-44
2022/12/06 09:09:53;;;;;;;;;;;21.60;37.20;;;;;;463931;256;1706;-43
2022/12/06 09:11:54;;;;;;;;;;;21.70;37.10;;;;;;464067;256;2209;-43
2022/12/06 09:13:55;;;;;;;;;;;21.60;37.10;;;;;;464078;256;1566;-43
2022/12/06 09:15:57;;;;;;;;;;;21.60;37.10;;;;;;464308;256;1604;-43
2022/12/06 09:17:58;;;;;;;;;;;21.60;37.20;;;;;;464194;256;1292;-43
2022/12/06 09:19:59;;;;;;;;;;;21.60;37.20;;;;;;464201;256;1444;-44
2022/12/06 09:22:01;;;;;;;;;;;21.60;37.20;;;;;;464396;256;1279;-43
2022/12/06 09:24:02;;;;;;;;;;;21.60;37.20;;;;;;464397;256;1192;-43
2022/12/06 09:26:03;;;;;;;;;;;21.60;37.20;;;;;;464113;256;1353;-43
2022/12/06 09:28:05;;;;;;;;;;;21.60;37.20;;;;;;464207;256;1216;-43
2022/12/06 09:30:06;;;;;;;;;;;21.60;37.20;;;;;;464245;256;1225;-44
2022/12/06 09:32:07;;;;;;;;;;;21.60;37.20;;;;;;464228;256;2213;-43
2022/12/06 09:34:09;;;;;;;;;;;21.60;37.20;;;;;;464252;256;1364;-44
2022/12/06 09:36:10;;;;;;;;;;;21.60;37.20;;;;;;463937;256;1317;-43
2022/12/06 09:38:11;;;;;;;;;;;21.60;37.10;;;;;;464222;256;1360;-43
2022/12/06 09:40:13;;;;;;;;;;;21.50;37.10;;;;;;464145;256;1359;-43
2022/12/06 09:42:14;;;;;;;;;;;21.60;37.20;;;;;;463985;256;1182;-44
2022/12/06 09:44:15;;;;;;;;;;;21.50;37.10;;;;;;464127;256;1186;-43
2022/12/06 09:46:17;;;;;;;;;;;21.50;37.10;;;;;;464112;256;1512;-44
2022/12/06 09:48:18;;;;;;;;;;;21.60;37.10;;;;;;464225;256;1206;-43
2022/12/06 09:50:20;;;;;;;;;;;21.50;37.10;;;;;;464260;256;1262;-43
2022/12/06 09:52:21;;;;;;;;;;;21.50;37.10;;;;;;464094;256;2217;-43
2022/12/06 09:54:22;;;;;;;;;;;21.50;37.20;;;;;;464405;256;1209;-43
2022/12/06 09:56:24;;;;;;;;;;;21.50;37.10;;;;;;464228;256;2116;-43
2022/12/06 09:58:25;;;;;;;;;;;21.50;37.10;;;;;;464417;256;1370;-43
2022/12/06 10:00:26;;;;;;;;;;;21.50;37.10;;;;;;464302;256;1698;-43
2022/12/06 10:02:28;;;;;;;;;;;21.50;37.10;;;;;;464215;256;1279;-43
2022/12/06 10:04:29;;;;;;;;;;;21.50;37.10;;;;;;464204;256;1430;-43
2022/12/06 10:06:30;;;;;;;;;;;21.50;37.10;;;;;;464104;256;1480;-43
2022/12/06 10:08:32;;;;;;;;;;;21.50;37.10;;;;;;464211;256;1584;-43
2022/12/06 10:10:33;;;;;;;;;;;21.50;37.10;;;;;;464320;256;1598;-43
2022/12/06 10:12:35;;;;;;;;;;;21.50;37.10;;;;;;464222;256;2206;-43
2022/12/06 10:14:36;;;;;;;;;;;21.50;37.10;;;;;;464394;256;1648;-43
2022/12/06 10:16:37;;;;;;;;;;;21.50;37.10;;;;;;464120;256;1592;-43
2022/12/06 10:18:39;;;;;;;;;;;21.50;37.10;;;;;;464357;256;1344;-44
2022/12/06 10:20:40;;;;;;;;;;;21.50;37.10;;;;;;464301;256;1262;-43
2022/12/06 10:22:41;;;;;;;;;;;21.50;37.10;;;;;;464269;256;1191;-44
2022/12/06 10:24:43;;;;;;;;;;;21.50;37.10;;;;;;464249;256;1521;-44
2022/12/06 10:26:44;;;;;;;;;;;21.50;37.00;;;;;;463845;256;1224;-43
2022/12/06 10:28:46;;;;;;;;;;;21.50;37.10;;;;;;463840;256;1532;-43
2022/12/06 10:30:46;;;;;;;;;;;21.50;37.00;;;;;;464132;256;1136;-43
2022/12/06 10:32:48;;;;;;;;;;;21.50;37.10;;;;;;464147;256;2198;-43
2022/12/06 10:34:49;;;;;;;;;;;21.50;37.10;;;;;;464104;256;1258;-43
2022/12/06 10:36:50;;;;;;;;;;;21.50;37.10;;;;;;463633;256;1178;-43
2022/12/06 10:38:52;;;;;;;;;;;21.50;37.10;;;;;;464207;256;1205;-43
2022/12/06 10:40:53;;;;;;;;;;;21.50;37.10;;;;;;464037;256;1436;-44
2022/12/06 10:42:54;;;;;;;;;;;21.50;37.10;;;;;;464172;256;1285;-44
2022/12/06 10:44:56;;;;;;;;;;;21.60;37.00;;;;;;464146;256;1287;-43
2022/12/06 10:47:03;;;;;;;;;;;21.50;36.90;;;;;;464176;256;1642;-43
2022/12/06 10:49:04;;;;;;;;;;;21.50;37.00;;;;;;464240;256;1090;-43
2022/12/06 10:51:06;;;;;;;;;;;21.50;37.00;;;;;;464094;256;1508;-44
2022/12/06 10:53:07;;;;;;;;;;;21.50;36.90;;;;;;463974;256;2190;-43
2022/12/06 10:55:08;;;;;;;;;;;21.60;37.00;;;;;;464134;256;1297;-43
2022/12/06 10:57:10;;;;;;;;;;;21.60;37.00;;;;;;464127;256;1341;-43
2022/12/06 10:59:11;;;;;;;;;;;21.60;37.00;;;;;;464213;256;1202;-43
2022/12/06 11:01:12;;;;;;;;;;;21.60;36.90;;;;;;464070;256;1521;-43
2022/12/06 11:03:14;;;;;;;;;;;21.60;36.90;;;;;;464033;256;1307;-43
2022/12/06 11:05:15;;;;;;;;;;;21.60;36.90;;;;;;464080;256;1218;-43
2022/12/06 11:07:16;;;;;;;;;;;21.60;36.90;;;;;;464160;256;1180;-43
2022/12/06 11:09:17;;;;;;;;;;;21.60;36.80;;;;;;464224;256;1318;-43
2022/12/06 11:11:19;;;;;;;;;;;21.60;36.90;;;;;;464091;256;1590;-43
2022/12/06 11:13:20;;;;;;;;;;;21.60;36.90;;;;;;463930;256;2202;-43
2022/12/06 11:15:21;;;;;;;;;;;21.60;36.90;;;;;;463862;256;1308;-43
2022/12/06 11:17:23;;;;;;;;;;;21.60;36.90;;;;;;463989;256;1422;-43
2022/12/06 11:19:24;;;;;;;;;;;21.60;36.80;;;;;;463824;256;1206;-44
2022/12/06 11:21:25;;;;;;;;;;;21.60;36.80;;;;;;463590;256;1319;-43
2022/12/06 11:23:28;;;;;;;;;;;21.60;36.80;;;;;;463897;256;1197;-43
2022/12/06 11:25:28;;;;;;;;;;;21.60;36.80;;;;;;464121;257;2189;-44
2022/12/06 11:27:30;;;;;;;;;;;21.60;36.80;;;;;;464098;256;1265;-43
2022/12/06 11:29:31;;;;;;;;;;;21.60;36.80;;;;;;464204;256;1265;-43
2022/12/06 11:31:33;;;;;;;;;;;21.60;36.70;;;;;;464121;256;1407;-43
2022/12/06 11:33:34;;;;;;;;;;;21.60;36.70;;;;;;464258;256;2206;-43
2022/12/06 11:35:35;;;;;;;;;;;21.60;36.70;;;;;;464090;256;1280;-43
2022/12/06 11:37:37;;;;;;;;;;;21.60;36.70;;;;;;464335;256;1349;-43
2022/12/06 11:39:38;;;;;;;;;;;21.60;36.70;;;;;;464259;256;1206;-43
2022/12/06 11:41:39;;;;;;;;;;;21.60;36.70;;;;;;464240;256;1239;-43
2022/12/06 11:43:41;;;;;;;;;;;21.60;36.70;;;;;;464123;256;2211;-43
2022/12/06 11:45:44;;;;;;;;;;;21.60;36.70;;;;;;463992;256;1349;-43
2022/12/06 11:47:43;;;;;;;;;;;21.60;36.70;;;;;;463908;256;2014;-43
2022/12/06 11:49:44;;;;;;;;;;;21.60;36.70;;;;;;464318;256;1215;-43
2022/12/06 11:51:46;;;;;;;;;;;21.60;36.70;;;;;;464188;256;1259;-43
2022/12/06 11:53:47;;;;;;;;;;;21.60;36.70;;;;;;464125;256;2219;-43
2022/12/06 11:55:49;;;;;;;;;;;21.60;36.70;;;;;;464165;256;1244;-43
2022/12/06 11:57:50;;;;;;;;;;;21.60;36.70;;;;;;464180;256;1247;-43
2022/12/06 11:59:51;;;;;;;;;;;21.60;36.70;;;;;;464383;256;1249;-43
2022/12/06 12:01:52;;;;;;;;;;;21.60;36.60;;;;;;464343;256;1221;-43
2022/12/06 12:03:54;;;;;;;;;;;21.60;36.60;;;;;;464457;256;1284;-43
2022/12/06 12:05:55;;;;;;;;;;;21.60;36.60;;;;;;464351;256;1804;-43
2022/12/06 12:07:56;;;;;;;;;;;21.60;36.50;;;;;;464261;256;1277;-43
2022/12/06 12:09:58;;;;;;;;;;;21.60;36.50;;;;;;464297;256;1371;-44
2022/12/06 12:11:59;;;;;;;;;;;21.60;36.50;;;;;;464228;256;1208;-43
2022/12/06 12:14:00;;;;;;;;;;;21.60;36.50;;;;;;464126;256;2214;-43
2022/12/06 12:16:02;;;;;;;;;;;21.60;36.50;;;;;;464247;256;1203;-43
2022/12/06 12:18:03;;;;;;;;;;;21.60;36.50;;;;;;464231;256;1252;-43
2022/12/06 12:20:04;;;;;;;;;;;21.60;36.50;;;;;;464294;256;1221;-43
2022/12/06 12:22:06;;;;;;;;;;;21.60;36.50;;;;;;464407;256;1227;-44
2022/12/06 12:24:07;;;;;;;;;;;21.60;36.50;;;;;;464333;256;1177;-43